Time;durP1;ratioP1;P1;durP2;ratioP2;P2;SDS_P1;SDS_P2;PMS_P1;PMS_P2;Temp;Humidity;BMP_temperature;BMP_pressure;BME280_temperature;BME280_humidity;BME280_pressure;Samples;Min_cycle;Max_cycle;Signal;HPM_P1;HPM_P2
2023/04/13 00:00:35;;;;;;;13.95;9.07;;;6.20;99.90;;;;;;5056765;28;20207;-74
2023/04/13 00:03:03;;;;;;;16.88;9.73;;;6.10;99.90;;;;;;5052299;28;20714;-73
2023/04/13 00:05:33;;;;;;;14.30;9.32;;;6.10;99.90;;;;;;5055801;28;20224;-73
2023/04/13 00:08:01;;;;;;;31.67;11.75;;;6.10;99.90;;;;;;5054045;28;20193;-74
2023/04/13 00:10:30;;;;;;;21.55;10.13;;;5.90;99.90;;;;;;5053534;28;20207;-74
2023/04/13 00:13:00;;;;;;;13.65;10.10;;;5.90;99.90;;;;;;5051185;28;20730;-73
2023/04/13 00:15:28;;;;;;;22.10;10.77;;;5.90;99.90;;;;;;5054500;28;20196;-74
2023/04/13 00:17:55;;;;;;;21.20;10.38;;;5.80;99.90;;;;;;5060123;28;20560;-73
2023/04/13 00:20:22;;;;;;;15.52;10.57;;;5.80;99.90;;;;;;5052167;28;20739;-73
2023/04/13 00:22:49;;;;;;;16.88;11.02;;;5.70;99.90;;;;;;5051332;28;20703;-73
2023/04/13 00:25:16;;;;;;;18.10;10.65;;;5.70;99.90;;;;;;5049891;28;20196;-75
2023/04/13 00:27:44;;;;;;;15.38;9.80;;;5.60;99.90;;;;;;5054631;28;20605;-72
2023/04/13 00:30:13;;;;;;;18.95;13.50;;;5.60;99.90;;;;;;5053821;28;20286;-72
2023/04/13 00:32:42;;;;;;;16.92;10.43;;;5.60;99.90;;;;;;5050298;28;20603;-73
2023/04/13 00:35:11;;;;;;;17.67;10.35;;;5.60;99.90;;;;;;5053736;28;20223;-73
2023/04/13 00:37:38;;;;;;;13.27;10.10;;;5.60;99.90;;;;;;5054246;28;20208;-73
2023/04/13 00:40:08;;;;;;;16.45;10.40;;;5.60;99.90;;;;;;5054575;28;20214;-74
2023/04/13 00:42:35;;;;;;;18.05;10.07;;;5.60;99.90;;;;;;5048960;28;20231;-73
2023/04/13 00:45:03;;;;;;;17.73;9.60;;;5.50;99.90;;;;;;5054719;28;20221;-73
2023/04/13 00:47:32;;;;;;;13.55;7.97;;;5.50;99.90;;;;;;5054062;28;20282;-73
2023/04/13 00:50:03;;;;;;;14.70;9.55;;;5.40;99.90;;;;;;5050894;28;20221;-74
2023/04/13 00:52:33;;;;;;;18.80;10.20;;;5.40;99.90;;;;;;5053539;28;20219;-74
2023/04/13 00:55:02;;;;;;;11.90;8.50;;;5.50;99.90;;;;;;5048154;28;20654;-73
2023/04/13 00:57:31;;;;;;;14.13;9.65;;;5.50;99.90;;;;;;5053487;28;20204;-74
2023/04/13 01:00:08;;;;;;;14.68;9.90;;;5.50;99.90;;;;;;5053532;28;20223;-73
2023/04/13 01:02:35;;;;;;;16.10;9.90;;;5.50;99.90;;;;;;5053145;28;20288;-74
2023/04/13 01:05:05;;;;;;;16.35;9.15;;;5.40;99.90;;;;;;5053690;28;20748;-73
2023/04/13 01:07:43;;;;;;;14.82;8.50;;;5.50;99.90;;;;;;5053413;28;20258;-73
2023/04/13 01:10:18;;;;;;;12.82;8.68;;;5.40;99.90;;;;;;5042796;28;20287;-73
2023/04/13 01:12:56;;;;;;;13.43;9.38;;;5.40;99.90;;;;;;5053078;28;20310;-73
2023/04/13 01:15:24;;;;;;;15.30;9.95;;;5.40;99.90;;;;;;5054737;28;20300;-74
2023/04/13 01:17:56;;;;;;;10.93;8.32;;;5.40;99.90;;;;;;5047546;28;20200;-73
2023/04/13 01:20:26;;;;;;;11.65;8.45;;;5.40;99.90;;;;;;5053080;28;20204;-73
2023/04/13 01:22:56;;;;;;;13.63;10.82;;;5.30;99.90;;;;;;5050926;28;20271;-73
2023/04/13 01:25:35;;;;;;;13.57;9.63;;;5.30;99.90;;;;;;5053041;28;20310;-73
2023/04/13 01:28:06;;;;;;;26.13;11.77;;;5.30;99.90;;;;;;5051115;28;20201;-73
2023/04/13 01:30:34;;;;;;;16.13;9.50;;;5.30;99.90;;;;;;5052798;28;20208;-73
2023/04/13 01:33:02;;;;;;;13.48;9.98;;;5.40;99.90;;;;;;5048661;28;20598;-74
2023/04/13 01:35:31;;;;;;;17.42;8.57;;;5.30;99.90;;;;;;5053662;28;20200;-73
2023/04/13 01:37:59;;;;;;;14.77;9.65;;;5.30;99.90;;;;;;5052950;28;20202;-72
2023/04/13 01:40:27;;;;;;;18.10;10.73;;;5.40;99.90;;;;;;5051232;28;20200;-73
2023/04/13 01:42:54;;;;;;;14.80;9.90;;;5.30;99.90;;;;;;5052957;28;20215;-73
2023/04/13 01:45:25;;;;;;;16.80;9.23;;;5.30;99.90;;;;;;5053219;28;20219;-73
2023/04/13 01:48:03;;;;;;;14.63;9.13;;;5.30;99.90;;;;;;5049039;28;20199;-74
2023/04/13 01:50:34;;;;;;;11.20;8.38;;;5.30;99.90;;;;;;5051365;28;20200;-73
2023/04/13 01:53:07;;;;;;;13.02;9.32;;;5.40;99.90;;;;;;5052815;28;20219;-76
2023/04/13 01:55:37;;;;;;;19.67;9.85;;;5.40;99.90;;;;;;5051674;28;20677;-74
2023/04/13 01:58:06;;;;;;;17.50;9.75;;;5.30;99.90;;;;;;5050722;28;20207;-74
2023/04/13 02:00:36;;;;;;;16.73;9.95;;;5.20;99.90;;;;;;5052127;28;20203;-74
2023/04/13 02:03:05;;;;;;;14.32;9.63;;;5.20;99.90;;;;;;5052090;28;20530;-73
2023/04/13 02:05:32;;;;;;;14.82;10.07;;;5.20;99.90;;;;;;5052738;28;20207;-73
2023/04/13 02:07:59;;;;;;;17.55;11.98;;;5.20;99.90;;;;;;5053342;28;20298;-72
2023/04/13 02:10:26;;;;;;;17.83;11.52;;;5.20;99.90;;;;;;5049774;28;20657;-72
2023/04/13 02:12:54;;;;;;;15.15;10.88;;;5.20;99.90;;;;;;5049547;28;20219;-73
2023/04/13 02:15:21;;;;;;;22.08;12.63;;;5.30;99.90;;;;;;5046672;28;20207;-76
2023/04/13 02:17:49;;;;;;;16.77;12.40;;;5.30;99.90;;;;;;5048087;28;20269;-73
2023/04/13 02:20:17;;;;;;;16.48;11.07;;;5.30;99.90;;;;;;5047451;28;20195;-75
2023/04/13 02:22:44;;;;;;;19.52;11.13;;;5.30;99.90;;;;;;5051214;28;20350;-72
2023/04/13 02:25:12;;;;;;;17.40;11.65;;;5.30;99.90;;;;;;5049677;28;20210;-75
2023/04/13 02:27:39;;;;;;;15.20;11.43;;;5.30;99.90;;;;;;5045076;28;20207;-74
2023/04/13 02:30:08;;;;;;;19.90;12.65;;;5.40;99.90;;;;;;5045723;28;20235;-73
2023/04/13 02:32:37;;;;;;;18.95;12.63;;;5.40;99.90;;;;;;5050658;28;20270;-73
2023/04/13 02:35:07;;;;;;;16.20;12.00;;;5.50;99.90;;;;;;5046109;28;20205;-73
2023/04/13 02:37:38;;;;;;;15.90;12.50;;;5.50;99.90;;;;;;5046166;28;20196;-74
2023/04/13 02:40:07;;;;;;;15.30;10.50;;;5.40;99.90;;;;;;5049524;28;20705;-73
2023/04/13 02:42:36;;;;;;;23.63;11.80;;;5.40;99.90;;;;;;5051654;28;20584;-75
2023/04/13 02:45:06;;;;;;;15.02;11.10;;;5.50;99.90;;;;;;5052436;28;20224;-73
2023/04/13 02:47:33;;;;;;;19.63;13.10;;;5.50;99.90;;;;;;5050093;28;20204;-74
2023/04/13 02:50:01;;;;;;;15.88;10.23;;;5.50;99.90;;;;;;5050580;28;20250;-72
2023/04/13 02:52:29;;;;;;;18.92;12.10;;;5.50;99.90;;;;;;5051332;28;20246;-73
2023/04/13 02:54:57;;;;;;;13.98;9.90;;;5.60;99.90;;;;;;5055353;28;20203;-73
2023/04/13 02:57:24;;;;;;;11.93;8.43;;;5.60;99.90;;;;;;5058856;28;20201;-73
2023/04/13 02:59:52;;;;;;;12.43;8.60;;;5.60;99.90;;;;;;5045966;28;20227;-73
2023/04/13 03:02:19;;;;;;;17.20;9.85;;;5.60;99.90;;;;;;5050461;28;20551;-73
2023/04/13 03:04:46;;;;;;;10.77;7.68;;;5.70;99.90;;;;;;5051648;28;20568;-74
2023/04/13 03:07:13;;;;;;;13.02;9.20;;;5.70;99.90;;;;;;5050629;28;20227;-74
2023/04/13 03:09:41;;;;;;;11.63;7.90;;;5.80;99.90;;;;;;5051770;28;20193;-73
2023/04/13 03:12:09;;;;;;;12.30;7.25;;;5.80;99.90;;;;;;5050457;28;20236;-74
2023/04/13 03:14:36;;;;;;;11.73;7.68;;;5.80;99.90;;;;;;5052274;28;20235;-74
2023/04/13 03:17:03;;;;;;;9.43;7.03;;;5.80;99.90;;;;;;5052819;28;20227;-72
2023/04/13 03:19:31;;;;;;;15.90;7.30;;;5.90;99.90;;;;;;5051268;28;20573;-72
2023/04/13 03:21:58;;;;;;;11.60;9.20;;;6.00;99.90;;;;;;5052723;28;20639;-73
2023/04/13 03:24:27;;;;;;;12.90;8.20;;;6.00;99.90;;;;;;5055269;28;20261;-74
2023/04/13 03:26:56;;;;;;;9.68;7.88;;;6.10;99.90;;;;;;5055445;28;20239;-72
2023/04/13 03:29:23;;;;;;;9.80;7.55;;;6.10;99.90;;;;;;5055521;28;20211;-72
2023/04/13 03:31:51;;;;;;;9.23;7.15;;;6.10;99.90;;;;;;5054704;28;20651;-75
2023/04/13 03:34:18;;;;;;;10.88;7.82;;;6.10;99.90;;;;;;5050692;28;20248;-74
2023/04/13 03:36:45;;;;;;;15.27;7.38;;;6.10;99.90;;;;;;5052161;28;20299;-73
2023/04/13 03:39:12;;;;;;;11.35;7.00;;;6.10;99.90;;;;;;5051097;28;20206;-74
2023/04/13 03:41:39;;;;;;;14.65;8.48;;;6.20;99.90;;;;;;5054448;28;20285;-75
2023/04/13 03:44:08;;;;;;;10.40;6.82;;;6.20;99.90;;;;;;5054847;28;20269;-73
2023/04/13 03:46:36;;;;;;;9.82;7.10;;;6.20;99.90;;;;;;5055146;28;20285;-74
2023/04/13 03:49:06;;;;;;;11.00;7.00;;;6.30;99.90;;;;;;5055163;28;20249;-74
2023/04/13 03:51:33;;;;;;;9.60;7.13;;;6.30;99.90;;;;;;5053517;28;20204;-74
2023/04/13 03:54:01;;;;;;;10.68;7.03;;;6.30;99.90;;;;;;5054912;28;20231;-73
2023/04/13 03:56:28;;;;;;;9.18;6.18;;;6.40;99.90;;;;;;5062293;28;20205;-74
2023/04/13 03:58:55;;;;;;;9.90;6.72;;;6.40;99.90;;;;;;5054596;28;20201;-73
2023/04/13 04:01:24;;;;;;;9.38;6.28;;;6.40;99.90;;;;;;5053429;28;20292;-74
2023/04/13 04:03:54;;;;;;;11.77;6.97;;;6.40;99.90;;;;;;5053652;28;20578;-73
2023/04/13 04:06:21;;;;;;;11.38;6.05;;;6.50;99.90;;;;;;5054735;28;20216;-73
2023/04/13 04:08:48;;;;;;;6.35;5.28;;;6.50;99.90;;;;;;5056934;28;20206;-74
2023/04/13 04:11:15;;;;;;;9.95;5.88;;;6.50;99.90;;;;;;5055393;28;20562;-74
2023/04/13 04:13:42;;;;;;;9.13;5.20;;;6.50;99.90;;;;;;5057820;28;20316;-72
2023/04/13 04:16:10;;;;;;;7.60;6.18;;;6.50;99.90;;;;;;5068599;28;20283;-72
2023/04/13 04:18:39;;;;;;;8.05;5.35;;;6.50;99.90;;;;;;5071873;28;20206;-72
2023/04/13 04:21:07;;;;;;;5.88;4.72;;;6.50;99.90;;;;;;5064976;28;20201;-74
2023/04/13 04:23:36;;;;;;;7.22;4.97;;;6.60;99.90;;;;;;5056568;28;20245;-75
2023/04/13 04:26:04;;;;;;;8.70;5.18;;;6.60;99.90;;;;;;5056291;28;20305;-75
2023/04/13 04:28:37;;;;;;;7.40;5.78;;;6.60;99.90;;;;;;5049707;28;20208;-73
2023/04/13 04:31:05;;;;;;;7.10;5.35;;;6.60;99.90;;;;;;5054559;28;20211;-74
2023/04/13 04:33:32;;;;;;;5.35;4.45;;;6.70;99.90;;;;;;5050369;28;20780;-73
2023/04/13 04:36:00;;;;;;;5.78;4.40;;;6.70;99.90;;;;;;5052053;28;20211;-74
2023/04/13 04:38:29;;;;;;;5.03;3.72;;;6.70;99.90;;;;;;5051928;28;20663;-73
2023/04/13 04:40:58;;;;;;;5.47;4.68;;;6.80;99.90;;;;;;5053670;28;20559;-74
2023/04/13 04:43:28;;;;;;;7.35;4.95;;;6.80;99.90;;;;;;5059941;28;20218;-74
2023/04/13 04:45:56;;;;;;;5.97;4.30;;;6.80;99.90;;;;;;5048021;28;20229;-73
2023/04/13 04:48:25;;;;;;;12.23;5.95;;;6.80;99.90;;;;;;5050407;28;20591;-73
2023/04/13 04:50:54;;;;;;;7.70;4.65;;;6.90;99.90;;;;;;5047904;28;20209;-73
2023/04/13 04:53:23;;;;;;;5.85;4.45;;;6.90;99.90;;;;;;5053559;28;20244;-73
2023/04/13 04:55:50;;;;;;;4.88;4.05;;;6.90;99.90;;;;;;5048503;28;20216;-73
2023/04/13 04:58:18;;;;;;;4.25;3.85;;;6.90;99.90;;;;;;5053612;28;20290;-73
2023/04/13 05:00:45;;;;;;;8.13;4.78;;;6.90;99.90;;;;;;5061391;28;20202;-73
2023/04/13 05:03:12;;;;;;;7.40;4.25;;;7.00;99.90;;;;;;5053282;28;20308;-73
2023/04/13 05:05:39;;;;;;;7.43;3.75;;;7.00;99.90;;;;;;5061654;28;20219;-73
2023/04/13 05:08:08;;;;;;;8.07;3.60;;;7.10;99.90;;;;;;5057926;28;20206;-73
2023/04/13 05:10:36;;;;;;;5.88;3.55;;;7.20;99.90;;;;;;5052557;28;20218;-73
2023/04/13 05:13:03;;;;;;;14.93;9.82;;;7.20;99.90;;;;;;5053417;28;20222;-73
2023/04/13 05:15:30;;;;;;;5.45;3.50;;;7.30;99.90;;;;;;5044775;28;20286;-73
2023/04/13 05:17:57;;;;;;;9.63;4.07;;;7.30;99.90;;;;;;5051883;28;20213;-73
2023/04/13 05:20:24;;;;;;;7.32;3.53;;;7.30;99.90;;;;;;5052166;28;20650;-74
2023/04/13 05:22:51;;;;;;;3.78;3.35;;;7.30;99.90;;;;;;5052869;28;20680;-74
2023/04/13 05:25:18;;;;;;;7.50;3.83;;;7.30;99.90;;;;;;5053466;28;20213;-75
2023/04/13 05:27:46;;;;;;;7.13;4.15;;;7.20;99.90;;;;;;5052005;28;20304;-74
2023/04/13 05:30:14;;;;;;;5.70;3.45;;;7.30;99.90;;;;;;5054746;28;20212;-74
2023/04/13 05:32:42;;;;;;;4.25;3.33;;;7.40;99.90;;;;;;5057305;28;20310;-74
2023/04/13 05:35:10;;;;;;;7.35;3.30;;;7.40;99.90;;;;;;5050798;28;20225;-74
2023/04/13 05:37:38;;;;;;;6.15;3.50;;;7.40;99.90;;;;;;5054625;28;20683;-72
2023/04/13 05:40:10;;;;;;;4.95;4.05;;;7.50;99.90;;;;;;5052330;28;20210;-73
2023/04/13 05:42:37;;;;;;;4.68;3.72;;;7.50;99.90;;;;;;5052430;28;20234;-74
2023/04/13 05:45:08;;;;;;;7.28;3.63;;;7.60;99.90;;;;;;5045330;28;20596;-73
2023/04/13 05:47:37;;;;;;;3.35;3.05;;;7.60;99.90;;;;;;5049725;28;20199;-74
2023/04/13 05:50:04;;;;;;;4.53;2.70;;;7.60;99.90;;;;;;5044320;28;20199;-73
2023/04/13 05:52:31;;;;;;;7.22;3.15;;;7.60;99.90;;;;;;5043141;28;20328;-74
2023/04/13 05:54:58;;;;;;;6.35;3.38;;;7.50;99.90;;;;;;5052527;28;20194;-73
2023/04/13 05:57:25;;;;;;;8.30;3.80;;;7.50;99.90;;;;;;5048615;28;20239;-74
2023/04/13 05:59:53;;;;;;;5.88;3.30;;;7.50;99.90;;;;;;5054914;28;20203;-74
2023/04/13 06:02:21;;;;;;;3.28;2.83;;;7.50;99.90;;;;;;5050976;28;20247;-74
2023/04/13 06:04:51;;;;;;;9.20;3.13;;;7.50;99.90;;;;;;5044914;28;20208;-74
2023/04/13 06:07:18;;;;;;;7.45;3.13;;;7.50;99.90;;;;;;5044385;28;20269;-74
2023/04/13 06:09:45;;;;;;;3.25;2.88;;;7.40;99.90;;;;;;5051421;28;20300;-73
2023/04/13 06:12:12;;;;;;;4.22;2.90;;;7.40;99.90;;;;;;5051996;28;20215;-75
2023/04/13 06:14:41;;;;;;;4.22;3.50;;;7.50;99.90;;;;;;5046078;28;20284;-72
2023/04/13 06:17:08;;;;;;;6.75;3.45;;;7.50;99.90;;;;;;5050526;28;20205;-74
2023/04/13 06:19:36;;;;;;;8.18;3.25;;;7.50;99.90;;;;;;5046525;28;20304;-73
2023/04/13 06:22:03;;;;;;;8.85;3.53;;;7.60;99.90;;;;;;5040490;28;20192;-72
2023/04/13 06:24:31;;;;;;;4.65;2.78;;;7.60;99.90;;;;;;5050092;28;20281;-72
2023/04/13 06:27:00;;;;;;;2.97;2.58;;;7.80;99.90;;;;;;5046114;28;20219;-73
2023/04/13 06:29:27;;;;;;;4.53;2.10;;;7.80;99.90;;;;;;5047029;28;20244;-74
2023/04/13 06:31:54;;;;;;;3.28;2.58;;;7.80;99.90;;;;;;5046452;28;20203;-74
2023/04/13 06:34:21;;;;;;;6.43;3.90;;;7.90;99.90;;;;;;5050085;28;20222;-73
2023/04/13 06:36:49;;;;;;;3.75;2.50;;;8.00;99.90;;;;;;5052133;28;20718;-72
2023/04/13 06:39:16;;;;;;;4.30;2.78;;;8.20;99.90;;;;;;5048605;28;20246;-73
2023/04/13 06:41:43;;;;;;;4.50;3.05;;;8.10;99.90;;;;;;5047718;28;20242;-73
2023/04/13 06:44:10;;;;;;;8.55;2.65;;;8.20;99.90;;;;;;5050805;28;20318;-72
2023/04/13 06:46:37;;;;;;;4.10;2.92;;;8.20;99.90;;;;;;5043949;28;20211;-72
2023/04/13 06:49:04;;;;;;;3.95;2.63;;;8.30;99.90;;;;;;5051175;28;20533;-71
2023/04/13 06:51:31;;;;;;;4.82;2.75;;;8.30;99.90;;;;;;5050538;28;20195;-73
2023/04/13 06:54:01;;;;;;;5.72;3.13;;;8.40;99.90;;;;;;5051674;28;20330;-75
2023/04/13 06:56:28;;;;;;;4.10;3.22;;;8.40;99.90;;;;;;5057928;28;20559;-76
2023/04/13 06:58:57;;;;;;;3.42;2.97;;;8.70;99.90;;;;;;5062014;28;20214;-74
2023/04/13 07:01:24;;;;;;;4.63;2.95;;;9.10;99.90;;;;;;5055014;28;20281;-74
2023/04/13 07:03:51;;;;;;;4.28;2.78;;;9.40;99.90;;;;;;5059329;28;20306;-72
2023/04/13 07:06:18;;;;;;;3.10;2.35;;;9.60;99.90;;;;;;5056268;28;20219;-72
2023/04/13 07:08:45;;;;;;;4.30;2.55;;;9.60;99.90;;;;;;5045152;28;20206;-73
2023/04/13 07:11:14;;;;;;;4.13;2.30;;;9.70;99.90;;;;;;5050473;28;20206;-73
2023/04/13 07:13:42;;;;;;;5.25;2.85;;;9.60;99.90;;;;;;5057150;28;20274;-73
2023/04/13 07:16:10;;;;;;;3.28;3.03;;;9.60;99.90;;;;;;5054992;28;20192;-73
2023/04/13 07:18:37;;;;;;;6.25;3.67;;;9.70;99.90;;;;;;5054901;28;20248;-73
2023/04/13 07:21:05;;;;;;;3.50;3.20;;;9.90;99.90;;;;;;5055350;28;20648;-73
2023/04/13 07:23:33;;;;;;;5.15;3.05;;;10.10;99.90;;;;;;5054788;28;20293;-73
2023/04/13 07:26:00;;;;;;;3.90;3.50;;;9.80;99.90;;;;;;5054488;28;20212;-73
2023/04/13 07:28:28;;;;;;;7.38;4.75;;;9.70;99.90;;;;;;5054920;28;20208;-73
2023/04/13 07:30:55;;;;;;;5.63;3.17;;;10.00;99.90;;;;;;5054444;28;20202;-75
2023/04/13 07:33:22;;;;;;;3.58;3.25;;;10.10;99.90;;;;;;5051107;28;20227;-73
2023/04/13 07:35:53;;;;;;;7.00;3.50;;;10.20;99.90;;;;;;5050451;28;20224;-72
2023/04/13 07:38:20;;;;;;;5.85;3.45;;;10.40;99.90;;;;;;5054535;28;20592;-73
2023/04/13 07:40:47;;;;;;;4.13;2.42;;;10.90;99.90;;;;;;5055427;28;20658;-73
2023/04/13 07:43:16;;;;;;;3.65;2.75;;;11.70;99.90;;;;;;5052246;28;20623;-74
2023/04/13 07:45:44;;;;;;;3.25;2.40;;;12.40;99.90;;;;;;5047044;28;20250;-73
2023/04/13 07:48:12;;;;;;;24.80;3.38;;;13.10;99.90;;;;;;5062806;28;20198;-74
2023/04/13 07:50:43;;;;;;;4.53;3.38;;;15.10;99.90;;;;;;5056490;28;20205;-74
2023/04/13 07:53:10;;;;;;;6.35;2.40;;;14.70;99.90;;;;;;5044890;28;20234;-75
2023/04/13 07:55:37;;;;;;;4.53;2.70;;;14.30;99.90;;;;;;5052739;28;20232;-75
2023/04/13 07:58:04;;;;;;;11.10;3.13;;;13.90;99.90;;;;;;5053688;28;20205;-74
2023/04/13 08:00:31;;;;;;;3.95;2.53;;;13.00;99.90;;;;;;5053541;28;20206;-72
2023/04/13 08:02:59;;;;;;;6.88;3.10;;;13.30;99.90;;;;;;5051058;28;20709;-74
2023/04/13 08:05:26;;;;;;;6.20;2.35;;;13.90;99.90;;;;;;5052333;28;20226;-74
2023/04/13 08:07:53;;;;;;;3.47;2.20;;;14.30;99.90;;;;;;5050880;28;20651;-73
2023/04/13 08:10:20;;;;;;;5.93;2.38;;;13.60;99.90;;;;;;5049395;28;20235;-74
2023/04/13 08:12:47;;;;;;;4.18;2.40;;;13.20;99.90;;;;;;5052710;28;20647;-73
2023/04/13 08:15:15;;;;;;;2.40;2.20;;;13.70;99.90;;;;;;5051489;28;20829;-74
2023/04/13 08:17:43;;;;;;;3.63;2.60;;;14.20;99.90;;;;;;5060273;28;20287;-73
2023/04/13 08:20:12;;;;;;;5.20;3.13;;;13.50;99.90;;;;;;5052184;28;20272;-74
2023/04/13 08:22:40;;;;;;;6.10;2.55;;;13.40;99.90;;;;;;5046770;28;20306;-74
2023/04/13 08:25:09;;;;;;;6.95;3.35;;;13.80;99.90;;;;;;5046632;28;20684;-74
2023/04/13 08:27:35;;;;;;;4.90;3.13;;;13.80;99.90;;;;;;5049286;28;20708;-74
2023/04/13 08:30:04;;;;;;;4.25;2.45;;;12.80;99.90;;;;;;5046273;28;20298;-75
2023/04/13 08:32:31;;;;;;;5.18;2.70;;;13.10;99.90;;;;;;5049231;28;20228;-76
2023/04/13 08:34:58;;;;;;;8.13;3.05;;;13.50;99.90;;;;;;5048402;28;20228;-76
2023/04/13 08:37:28;;;;;;;2.97;2.72;;;13.10;99.90;;;;;;5051621;28;20205;-76
2023/04/13 08:39:59;;;;;;;4.72;3.00;;;13.00;99.90;;;;;;5047452;28;20654;-75
2023/04/13 08:42:26;;;;;;;6.30;4.07;;;12.80;99.90;;;;;;5053040;28;20238;-75
2023/04/13 08:44:57;;;;;;;5.78;3.40;;;12.40;99.90;;;;;;5051090;28;20290;-77
2023/04/13 08:47:27;;;;;;;5.70;3.25;;;12.00;99.90;;;;;;5053332;28;20206;-75
2023/04/13 08:49:57;;;;;;;3.55;2.28;;;11.50;99.90;;;;;;5046624;28;20200;-75
2023/04/13 08:52:28;;;;;;;3.95;2.78;;;11.20;99.90;;;;;;5047294;28;20203;-77
2023/04/13 08:54:56;;;;;;;4.10;2.88;;;11.10;99.90;;;;;;5048918;28;20198;-74
2023/04/13 08:57:24;;;;;;;3.13;2.42;;;11.30;99.90;;;;;;5042085;28;20196;-76
2023/04/13 08:59:52;;;;;;;5.45;2.65;;;11.40;99.90;;;;;;5048690;28;20213;-74
2023/04/13 09:02:24;;;;;;;5.45;3.13;;;11.50;99.90;;;;;;5043877;28;20204;-75
2023/04/13 09:04:54;;;;;;;3.17;2.42;;;11.60;99.90;;;;;;5050264;28;20236;-74
2023/04/13 09:07:26;;;;;;;5.32;2.65;;;11.70;99.90;;;;;;5049809;28;20214;-74
2023/04/13 09:09:57;;;;;;;6.45;3.40;;;11.90;99.90;;;;;;5045354;28;20282;-74
2023/04/13 09:12:24;;;;;;;6.35;2.83;;;12.20;99.90;;;;;;5040107;28;20195;-76
2023/04/13 09:14:51;;;;;;;4.22;2.88;;;12.20;99.90;;;;;;5052195;28;20270;-74
2023/04/13 09:17:25;;;;;;;4.80;2.85;;;12.50;99.90;;;;;;5051465;28;20278;-76
2023/04/13 09:19:53;;;;;;;7.68;2.90;;;13.70;99.90;;;;;;5046843;28;20259;-74
2023/04/13 09:22:21;;;;;;;2.73;2.23;;;15.60;99.90;;;;;;5042630;28;20203;-74
2023/04/13 09:24:48;;;;;;;3.40;2.37;;;16.30;96.50;;;;;;5048349;28;20454;-75
2023/04/13 09:27:20;;;;;;;4.73;2.43;;;16.00;95.40;;;;;;5050933;28;20560;-74
2023/04/13 09:29:51;;;;;;;4.50;2.30;;;16.60;94.60;;;;;;5048632;28;20924;-73
2023/04/13 09:32:22;;;;;;;3.10;2.47;;;17.10;93.50;;;;;;5045296;28;20438;-74
2023/04/13 09:35:00;;;;;;;3.53;2.53;;;15.90;93.90;;;;;;5051453;28;20524;-73
2023/04/13 09:37:28;;;;;;;2.78;2.00;;;14.30;95.80;;;;;;5049165;28;20435;-74
2023/04/13 09:39:55;;;;;;;3.90;1.88;;;13.80;97.60;;;;;;5056379;28;20200;-73
2023/04/13 09:42:23;;;;;;;14.30;3.08;;;13.20;99.90;;;;;;5053260;28;20593;-74
2023/04/13 09:44:57;;;;;;;5.65;2.47;;;12.90;99.90;;;;;;5047840;28;20693;-73
2023/04/13 09:47:25;;;;;;;4.28;2.20;;;12.60;99.90;;;;;;5039807;28;20667;-74
2023/04/13 09:49:54;;;;;;;3.65;2.72;;;12.20;99.90;;;;;;5049836;28;20223;-73
2023/04/13 09:52:22;;;;;;;4.65;2.30;;;12.10;99.90;;;;;;5041886;28;20567;-74
2023/04/13 09:54:50;;;;;;;2.60;2.15;;;12.10;99.90;;;;;;5048667;28;20671;-74
2023/04/13 09:57:26;;;;;;;3.55;2.53;;;12.50;99.90;;;;;;5047069;28;20203;-75
2023/04/13 09:59:56;;;;;;;8.60;2.10;;;12.70;99.90;;;;;;5041532;28;20304;-74
2023/04/13 10:02:24;;;;;;;5.10;2.90;;;12.50;99.90;;;;;;5045935;28;20235;-75
2023/04/13 10:04:51;;;;;;;3.85;1.95;;;12.40;99.90;;;;;;5045476;28;20242;-74
2023/04/13 10:07:18;;;;;;;3.00;1.90;;;12.80;99.90;;;;;;5048902;28;20696;-75
2023/04/13 10:09:45;;;;;;;8.77;3.00;;;13.00;99.90;;;;;;5045772;28;20292;-73
2023/04/13 10:12:16;;;;;;;4.70;2.13;;;13.50;99.90;;;;;;5046000;28;20237;-73
2023/04/13 10:14:47;;;;;;;2.83;2.20;;;13.70;99.90;;;;;;5043974;28;20253;-73
2023/04/13 10:17:36;;;;;;;4.25;1.90;;;13.10;99.30;;;;;;5048017;28;20207;-75
2023/04/13 10:20:09;;;;;;;4.32;2.40;;;12.60;99.10;;;;;;5045543;28;20204;-75
2023/04/13 10:22:39;;;;;;;5.95;2.30;;;12.50;99.50;;;;;;5044949;28;20234;-74
2023/04/13 10:25:06;;;;;;;3.63;2.83;;;12.10;99.90;;;;;;5048549;28;20224;-75
2023/04/13 10:27:35;;;;;;;5.30;2.70;;;11.80;99.90;;;;;;5052853;28;20696;-75
2023/04/13 10:30:15;;;;;;;3.35;2.75;;;11.80;99.90;;;;;;5051037;28;20197;-75
2023/04/13 10:32:42;;;;;;;3.70;3.08;;;11.80;99.90;;;;;;5052653;28;20306;-75
2023/04/13 10:35:11;;;;;;;5.25;2.33;;;11.90;99.90;;;;;;5054358;28;20519;-75
2023/04/13 10:37:39;;;;;;;6.18;2.80;;;12.10;99.90;;;;;;5053196;28;20679;-74
2023/04/13 10:40:09;;;;;;;3.83;3.00;;;12.60;99.90;;;;;;5050339;28;20283;-74
2023/04/13 10:42:41;;;;;;;8.45;2.75;;;12.70;99.90;;;;;;5049486;28;20315;-73
2023/04/13 10:45:19;;;;;;;8.68;3.00;;;12.70;99.90;;;;;;5055460;28;20675;-72
2023/04/13 10:47:46;;;;;;;7.60;2.88;;;12.50;99.90;;;;;;5046050;28;20215;-73
2023/04/13 10:50:17;;;;;;;5.38;3.00;;;12.20;99.90;;;;;;5051624;28;20283;-75
2023/04/13 10:52:59;;;;;;;7.95;3.17;;;12.20;99.90;;;;;;5046053;28;20232;-74
2023/04/13 10:55:27;;;;;;;5.78;3.05;;;12.50;99.90;;;;;;5052315;28;20210;-73
2023/04/13 10:57:55;;;;;;;3.55;2.72;;;13.00;99.90;;;;;;5047768;28;20205;-73
2023/04/13 11:00:24;;;;;;;7.63;3.38;;;13.40;99.90;;;;;;5048823;28;20219;-73
2023/04/13 11:02:53;;;;;;;4.80;2.55;;;13.80;99.90;;;;;;5045964;28;20224;-74
2023/04/13 11:05:21;;;;;;;4.10;2.60;;;14.10;99.90;;;;;;5050224;28;20286;-73
2023/04/13 11:07:49;;;;;;;6.10;3.00;;;14.20;99.90;;;;;;5054266;28;20227;-72
2023/04/13 11:10:23;;;;;;;6.57;2.85;;;14.10;99.90;;;;;;5054618;28;20200;-73
2023/04/13 11:12:51;;;;;;;4.32;2.53;;;14.20;99.90;;;;;;5048508;28;20235;-74
2023/04/13 11:15:23;;;;;;;4.78;3.03;;;13.30;99.90;;;;;;5049671;28;20204;-72
2023/04/13 11:17:55;;;;;;;2.20;2.00;;;13.30;99.90;;;;;;5049620;28;20207;-72
2023/04/13 11:20:34;;;;;;;2.22;2.03;;;12.70;99.90;;;;;;5062174;28;20286;-73
2023/04/13 11:23:05;;;;;;;2.40;2.20;;;12.60;99.90;;;;;;5054345;28;20254;-73
2023/04/13 11:25:32;;;;;;;3.90;1.90;;;12.80;99.90;;;;;;5050879;28;20673;-75
2023/04/13 11:28:01;;;;;;;2.75;1.75;;;13.20;99.90;;;;;;5046476;28;20220;-72
2023/04/13 11:30:31;;;;;;;1.88;1.77;;;13.50;99.90;;;;;;5051848;28;20243;-72
2023/04/13 11:32:59;;;;;;;1.58;1.48;;;13.60;99.90;;;;;;5054511;28;20228;-71
2023/04/13 11:35:27;;;;;;;2.03;1.55;;;13.80;99.90;;;;;;5050979;28;20273;-72
2023/04/13 11:37:55;;;;;;;2.30;2.03;;;14.00;99.00;;;;;;5054267;28;20195;-73
2023/04/13 11:40:24;;;;;;;1.33;1.20;;;13.80;99.70;;;;;;5048346;28;20200;-70
2023/04/13 11:42:53;;;;;;;2.22;1.85;;;13.30;99.90;;;;;;5048455;28;20288;-74
2023/04/13 11:45:22;;;;;;;1.85;1.30;;;13.10;99.90;;;;;;5054383;28;20220;-72
2023/04/13 11:47:52;;;;;;;3.13;2.20;;;12.90;99.90;;;;;;5048824;28;20227;-73
2023/04/13 11:50:20;;;;;;;2.50;1.90;;;13.20;99.90;;;;;;5052918;28;20191;-72
2023/04/13 11:52:49;;;;;;;2.10;1.90;;;13.20;99.90;;;;;;5054092;28;20625;-72
2023/04/13 11:55:17;;;;;;;2.40;1.98;;;13.40;99.90;;;;;;5044397;28;20203;-72
2023/04/13 11:57:44;;;;;;;24.77;5.93;;;13.50;99.90;;;;;;5051117;28;20626;-72
2023/04/13 12:00:17;;;;;;;2.35;2.15;;;13.70;99.90;;;;;;5049869;28;20231;-72
2023/04/13 12:02:46;;;;;;;4.28;2.45;;;13.90;99.90;;;;;;5046896;28;20264;-73
2023/04/13 12:05:24;;;;;;;1.92;1.60;;;14.20;99.70;;;;;;5052286;28;20725;-72
2023/04/13 12:07:53;;;;;;;7.40;3.65;;;14.00;98.50;;;;;;5041169;28;20739;-73
2023/04/13 12:10:25;;;;;;;3.58;1.63;;;14.00;98.60;;;;;;5051897;28;20196;-72
2023/04/13 12:12:59;;;;;;;2.40;2.13;;;14.10;98.40;;;;;;5042138;28;20310;-70
2023/04/13 12:15:29;;;;;;;3.08;2.05;;;13.90;98.60;;;;;;5047241;28;20198;-70
2023/04/13 12:17:58;;;;;;;5.57;2.25;;;14.40;99.20;;;;;;5046648;28;20287;-73
2023/04/13 12:20:33;;;;;;;3.65;1.88;;;14.40;97.60;;;;;;5047435;28;20215;-78
2023/04/13 12:23:00;;;;;;;2.60;2.40;;;14.00;98.10;;;;;;5053002;28;20246;-75
2023/04/13 12:25:28;;;;;;;5.63;2.20;;;14.00;98.00;;;;;;5050525;28;20287;-74
2023/04/13 12:27:56;;;;;;;4.13;2.58;;;14.00;98.10;;;;;;5053723;28;20214;-76
2023/04/13 12:30:25;;;;;;;3.05;1.45;;;13.70;98.80;;;;;;5042537;28;20201;-76
2023/04/13 12:32:53;;;;;;;3.15;2.17;;;13.30;99.60;;;;;;5048112;28;20250;-74
2023/04/13 12:35:21;;;;;;;3.47;2.00;;;13.30;99.10;;;;;;5051069;28;20688;-74
2023/04/13 12:37:51;;;;;;;2.40;1.95;;;13.30;99.70;;;;;;5048048;28;20239;-75
2023/04/13 12:40:18;;;;;;;5.03;2.40;;;13.00;99.90;;;;;;5050511;28;20287;-75
2023/04/13 12:42:45;;;;;;;9.45;3.60;;;12.90;99.90;;;;;;5055383;28;20225;-74
2023/04/13 12:45:13;;;;;;;7.28;2.60;;;12.00;99.90;;;;;;5058907;28;20325;-74
2023/04/13 12:47:40;;;;;;;1.73;1.33;;;11.20;99.90;;;;;;5050269;28;20224;-76
2023/04/13 12:50:10;;;;;;;3.20;1.20;;;10.60;99.90;;;;;;5043324;28;20255;-75
2023/04/13 12:52:39;;;;;;;1.83;1.40;;;10.30;99.90;;;;;;5050609;28;20227;-75
2023/04/13 12:55:19;;;;;;;3.33;1.45;;;10.00;99.90;;;;;;5047196;28;20197;-76